Timnath, Colorado
Current Conditions -  °F | °C
As of 4:15 AM on Sunday 23 Nov 2014 (Local Time) from KFNL Reporting Station
Clear Clear  
Wind Chill: 27°   Ceiling: Unl
Heat Index: 37°   Visibility: 10mi
Dew Point: 19°   Wind: 20mph
Humidity: 48%   Direction: 320°NW
Pressure: 29.7"   Gusts: NA
Location:  40.53°N, 104.99°W
Report Text: KFNL 231115Z AUTO 32017KT 10SM CLR 03/M07 A2970 RMK AO1
Loading
Personal Weather Stations






























Interactive Weather Map New forecast layout! Learn more

10-Day Weather Forecast

Advertisements
Track Severe Weather on mobile